Terminal Aerodrome Forecast
Issued by NWS Portland, OR

Home | Current Version | Previous Version | Text Only | Print | Product List | Glossary On
Versions: 1 2 3 4 5 6 7 8 9 10 11 12 13 14 15 16 17 18 19 20 21 22 23 24 25 26 27 28 29 30
000
FTUS46 KPQR 171738
TAFTTD
TAF
KTTD 171738Z 1718/1818 23014G24KT 5SM -RA BR BKN015 OVC025
     FM172200 23016G25KT 5SM -RA SCT015 BKN025 OVC040
     FM180300 23012KT P6SM -SHRA BKN025
     FM180600 23009KT P6SM -SHRA SCT025 OVC040=

USA.gov is the U.S. government's official web portal to all federal, state and local government web resources and services.